Time;durP1;ratioP1;P1;durP2;ratioP2;P2;SDS_P1;SDS_P2;PMS_P1;PMS_P2;Temp;Humidity;BMP_temperature;BMP_pressure;BME280_temperature;BME280_humidity;BME280_pressure;Samples;Min_cycle;Max_cycle;Signal;HPM_P1;HPM_P2
2022/11/05 00:10:26;;;;;;;;;;;;;;;-143.57;100.00;51068.41;5059208;28;19963;-65
2022/11/05 00:18:23;;;;;;;;;;;;;;;-143.57;100.00;51056.50;5059069;28;20330;-64
2022/11/05 00:20:50;;;;;;;;;;;;;;;-143.57;100.00;51092.28;5062321;28;19932;-65
2022/11/05 00:26:03;;;;;;;;;;;;;;;-143.57;100.00;51096.25;5055916;28;19959;-65
2022/11/05 00:28:30;;;;;;;;;;;;;;;-143.57;100.00;51116.13;5059746;28;19925;-65
2022/11/05 00:31:03;;;;;;;;;;;;;;;-143.57;100.00;51128.06;5057511;28;19993;-65
2022/11/05 00:33:29;;;;;;;;;;;;;;;-143.57;100.00;51068.41;5060110;28;19934;-64
2022/11/05 00:35:56;;;;;;;;;;;;;;;-143.57;100.00;51084.31;5056526;28;19963;-64
2022/11/05 00:38:23;;;;;;;;;;;;;;;-143.57;100.00;51084.31;5059100;28;20024;-64
2022/11/05 00:40:50;;;;;;;;;;;;;;;-143.57;100.00;51096.25;5056161;28;20299;-65
2022/11/05 00:46:02;;;;;;;;;;;;;;;-143.57;100.00;51104.19;5057399;28;19932;-65
2022/11/05 00:51:13;;;;;;;;;;;;;;;-143.57;100.00;51060.47;5058235;28;20423;-65
2022/11/05 00:53:40;;;;;;;;;;;;;;;-143.57;100.00;51118.13;5059277;28;19928;-65
2022/11/05 00:56:07;;;;;;;;;;;;;;;-143.57;100.00;51098.25;5059672;28;20080;-63
2022/11/05 00:58:33;;;;;;;;;;;;;;;-143.57;100.00;51084.31;5057960;28;20034;-63
2022/11/05 01:01:00;;;;;;;;;;;;;;;-143.57;100.00;51056.50;5060815;28;20039;-63
2022/11/05 01:03:34;;;;;;;;;;;;;;;-143.57;100.00;51072.41;5060821;28;21383;-63
2022/11/05 01:06:14;;;;;;;;;;;;;;;-143.57;100.00;51080.34;5061035;28;20037;-65
2022/11/05 01:08:42;;;;;;;;;;;;;;;-143.57;100.00;51076.38;5060948;28;20047;-65
2022/11/05 01:11:12;;;;;;;;;;;;;;;-143.57;100.00;51100.22;5057959;28;19925;-65
2022/11/05 01:13:39;;;;;;;;;;;;;;;-143.57;100.00;51080.34;5059562;28;19940;-65
2022/11/05 01:16:07;;;;;;;;;;;;;;;-143.57;100.00;51124.06;5059709;28;19928;-65
2022/11/05 01:18:35;;;;;;;;;;;;;;;-143.57;100.00;51052.50;5056854;28;19924;-65
2022/11/05 01:21:09;;;;;;;;;;;;;;;-143.57;100.00;51090.28;5059865;28;19928;-65
2022/11/05 01:23:35;;;;;;;;;;;;;;;-143.57;100.00;51102.22;5060005;28;20023;-65
2022/11/05 01:26:02;;;;;;;;;;;;;;;-143.57;100.00;51078.34;5059980;28;19960;-65
2022/11/05 01:28:28;;;;;;;;;;;;;;;-143.57;100.00;51072.41;5058061;28;20456;-65
2022/11/05 01:30:55;;;;;;;;;;;;;;;-143.57;100.00;51112.16;5059365;28;19924;-65
2022/11/05 01:33:22;;;;;;;;;;;;;;;-143.57;100.00;51139.97;5059152;28;20017;-65
2022/11/05 01:35:50;;;;;;;;;;;;;;;-143.57;100.00;51092.28;5057965;28;19936;-65
2022/11/05 01:38:17;;;;;;;;;;;;;;;-143.57;100.00;51070.41;5059886;28;19932;-65
2022/11/05 01:40:44;;;;;;;;;;;;;;;-143.57;100.00;51118.13;5054721;28;20027;-65
2022/11/05 01:43:17;;;;;;;;;;;;;;;-143.57;100.00;51100.22;5057347;28;20488;-65
2022/11/05 01:45:46;;;;;;;;;;;;;;;-143.57;100.00;51096.25;5058397;28;19955;-65
2022/11/05 01:48:15;;;;;;;;;;;;;;;-143.57;100.00;51100.22;5060755;28;19950;-65
2022/11/05 01:50:42;;;;;;;;;;;;;;;-143.57;100.00;51076.38;5077117;28;19932;-65
2022/11/05 01:53:14;;;;;;;;;;;;;;;-143.57;100.00;51088.28;5058838;28;19928;-66
2022/11/05 01:55:54;;;;;;;;;;;;;;;-143.57;100.00;51094.25;5055701;28;19983;-65
2022/11/05 01:58:23;;;;;;;;;;;;;;;-143.57;100.00;51068.41;5059270;28;19959;-65
2022/11/05 02:00:50;;;;;;;;;;;;;;;-143.57;100.00;51076.38;5054104;28;20664;-65
2022/11/05 02:03:17;;;;;;;;;;;;;;;-143.57;100.00;51080.34;5061010;28;20461;-65
2022/11/05 02:05:44;;;;;;;;;;;;;;;-143.57;100.00;51064.44;5056912;28;19932;-65
2022/11/05 02:08:15;;;;;;;;;;;;;;;-143.57;100.00;51092.28;5057312;28;20699;-65
2022/11/05 02:10:42;;;;;;;;;;;;;;;-143.57;100.00;51116.13;5086113;27;20457;-65
2022/11/05 02:13:09;;;;;;;;;;;;;;;-143.57;100.00;51060.47;5063765;28;19932;-66
2022/11/05 02:15:57;;;;;;;;;;;;;;;-143.57;100.00;51124.06;5064150;28;19932;-66
2022/11/05 02:18:23;;;;;;;;;;;;;;;-143.57;100.00;51088.28;5061668;28;20658;-65
2022/11/05 02:21:05;;;;;;;;;;;;;;;-143.57;100.00;51092.28;5062485;28;20376;-65
2022/11/05 02:23:49;;;;;;;;;;;;;;;-143.57;100.00;51096.25;5061567;28;19939;-65
2022/11/05 02:26:31;;;;;;;;;;;;;;;-143.57;100.00;51080.34;5062236;28;19928;-65
2022/11/05 02:29:13;;;;;;;;;;;;;;;-143.57;100.00;51124.06;5062477;28;20018;-65
2022/11/05 02:31:46;;;;;;;;;;;;;;;-143.57;100.00;51139.97;5063758;28;19956;-66
2022/11/05 02:34:22;;;;;;;;;;;;;;;-143.57;100.00;51076.38;5059332;28;19932;-64
2022/11/05 02:36:51;;;;;;;;;;;;;;;-143.57;100.00;51143.97;5061010;28;19925;-63
2022/11/05 02:39:42;;;;;;;;;;;;;;;-143.57;100.00;51090.28;5058743;28;19928;-64
2022/11/05 02:42:09;;;;;;;;;;;;;;;-143.57;100.00;51116.13;5060619;28;20628;-64
2022/11/05 02:44:54;;;;;;;;;;;;;;;-143.57;100.00;51116.13;5058661;28;20099;-64
2022/11/05 02:47:27;;;;;;;;;;;;;;;-143.57;100.00;51120.09;5062033;28;19981;-64
2022/11/05 02:50:05;;;;;;;;;;;;;;;-143.57;100.00;51092.28;5060216;28;19932;-63
2022/11/05 02:52:32;;;;;;;;;;;;;;;-143.57;100.00;51074.38;5062973;28;19928;-63
2022/11/05 02:55:08;;;;;;;;;;;;;;;-143.57;100.00;51124.06;5060535;27;19932;-63
2022/11/05 02:57:35;;;;;;;;;;;;;;;-143.57;100.00;51108.19;5061536;28;20312;-63
2022/11/05 03:00:25;;;;;;;;;;;;;;;-143.57;100.00;51092.28;5059845;28;19986;-63
2022/11/05 03:02:52;;;;;;;;;;;;;;;-143.57;100.00;51084.31;5060077;28;20712;-62
2022/11/05 03:05:22;;;;;;;;;;;;;;;-143.57;100.00;51108.19;5060346;28;19977;-63
2022/11/05 03:08:03;;;;;;;;;;;;;;;-143.57;100.00;51116.13;5064334;28;19956;-64
2022/11/05 03:10:39;;;;;;;;;;;;;;;-143.57;100.00;51108.19;5062184;28;19924;-63
2022/11/05 03:13:26;;;;;;;;;;;;;;;-143.57;100.00;51052.50;5059601;28;20035;-63
2022/11/05 03:15:59;;;;;;;;;;;;;;;-143.57;100.00;51100.22;5060786;28;19937;-63
2022/11/05 03:18:28;;;;;;;;;;;;;;;-143.57;100.00;51122.09;5062840;28;19931;-63
2022/11/05 03:21:04;;;;;;;;;;;;;;;-143.57;100.00;51136.00;5058678;28;20032;-63
2022/11/05 03:23:33;;;;;;;;;;;;;;;-143.57;100.00;51096.25;5063722;28;19932;-63
2022/11/05 03:26:06;;;;;;;;;;;;;;;-143.57;100.00;51100.22;5058873;28;19928;-63
2022/11/05 03:28:34;;;;;;;;;;;;;;;-143.57;100.00;51108.19;5061503;28;19982;-63
2022/11/05 03:31:02;;;;;;;;;;;;;;;-143.57;100.00;51112.16;5059282;28;19932;-63
2022/11/05 03:33:31;;;;;;;;;;;;;;;-143.57;100.00;51108.19;5060376;28;20021;-64
2022/11/05 03:36:01;;;;;;;;;;;;;;;-143.57;100.00;51120.09;5057969;28;19929;-64
2022/11/05 03:38:31;;;;;;;;;;;;;;;-143.57;100.00;51084.31;5059275;28;19982;-64
2022/11/05 03:41:00;;;;;;;;;;;;;;;-143.57;100.00;51090.28;5058077;28;19932;-64
2022/11/05 03:43:29;;;;;;;;;;;;;;;-143.57;100.00;51068.41;5060849;28;19933;-63
2022/11/05 03:45:58;;;;;;;;;;;;;;;-143.57;100.00;51128.06;5059656;28;19978;-64
2022/11/05 03:48:26;;;;;;;;;;;;;;;-143.57;100.00;51092.28;5057088;28;20600;-63
2022/11/05 03:50:56;;;;;;;;;;;;;;;-143.57;100.00;51096.25;5064908;28;19935;-63
2022/11/05 03:53:31;;;;;;;;;;;;;;;-143.57;100.00;51080.34;5058156;28;19925;-64
2022/11/05 03:56:17;;;;;;;;;;;;;;;-143.57;100.00;51092.28;5060707;28;19929;-64
2022/11/05 03:58:45;;;;;;;;;;;;;;;-143.57;100.00;51104.19;5041019;28;20333;-65
2022/11/05 04:01:13;;;;;;;;;;;;;;;-143.57;100.00;51084.31;5060228;28;19990;-65
2022/11/05 04:03:39;;;;;;;;;;;;;;;-143.57;100.00;51088.28;5057254;28;19932;-65
2022/11/05 04:14:28;;;;;;;;;;;;;;;-143.57;100.00;51094.25;5058420;28;20019;-65
2022/11/05 04:17:07;;;;;;;;;;;;;;;-143.57;100.00;51120.09;5059106;28;19994;-65
2022/11/05 04:25:07;;;;;;;;;;;;;;;-143.57;100.00;51151.91;5056794;28;19934;-65
2022/11/05 04:27:34;;;;;;;;;;;;;;;-143.57;100.00;51120.09;5060856;28;20011;-64
2022/11/05 04:30:19;;;;;;;;;;;;;;;-143.57;100.00;51126.06;5059063;28;19963;-65
2022/11/05 04:33:04;;;;;;;;;;;;;;;-143.57;100.00;51108.19;5058910;28;20650;-65
2022/11/05 04:35:35;;;;;;;;;;;;;;;-143.57;100.00;51108.19;5058089;28;20503;-65
2022/11/05 04:38:03;;;;;;;;;;;;;;;-143.57;100.00;51120.09;5058778;28;20030;-65
2022/11/05 04:40:30;;;;;;;;;;;;;;;-143.57;100.00;51112.16;5055589;28;19990;-64
2022/11/05 04:42:57;;;;;;;;;;;;;;;-143.57;100.00;51104.19;5062532;28;20378;-64
2022/11/05 04:45:25;;;;;;;;;;;;;;;-143.57;100.00;51139.97;5059873;28;19978;-64
2022/11/05 04:47:52;;;;;;;;;;;;;;;-143.57;100.00;51128.06;5062077;28;19978;-64
2022/11/05 04:50:18;;;;;;;;;;;;;;;-143.57;100.00;51128.06;5061280;28;19924;-65
2022/11/05 04:52:45;;;;;;;;;;;;;;;-143.57;100.00;51110.16;5058170;28;20396;-65
2022/11/05 04:55:12;;;;;;;;;;;;;;;-143.57;100.00;51139.97;5058833;28;19929;-65
2022/11/05 04:57:39;;;;;;;;;;;;;;;-143.57;100.00;51159.84;5058925;28;19985;-64
2022/11/05 05:00:06;;;;;;;;;;;;;;;-143.57;100.00;51106.19;5063229;28;19963;-64
2022/11/05 05:02:35;;;;;;;;;;;;;;;-143.57;100.00;51112.16;5057356;28;20044;-65
2022/11/05 05:05:01;;;;;;;;;;;;;;;-143.57;100.00;51132.03;5058114;28;20406;-65
2022/11/05 05:07:28;;;;;;;;;;;;;;;-143.57;100.00;51100.22;5060911;28;19952;-66
2022/11/05 05:09:55;;;;;;;;;;;;;;;-143.57;100.00;51114.13;5058420;28;19928;-66
2022/11/05 05:12:22;;;;;;;;;;;;;;;-143.57;100.00;51092.28;5062924;28;19990;-65
2022/11/05 05:14:48;;;;;;;;;;;;;;;-143.57;100.00;51112.16;5060892;28;19928;-65
2022/11/05 05:17:15;;;;;;;;;;;;;;;-143.57;100.00;51143.97;5055928;28;19956;-65
2022/11/05 05:22:27;;;;;;;;;;;;;;;-143.57;100.00;51120.09;5054824;28;19925;-66
2022/11/05 05:24:55;;;;;;;;;;;;;;;-143.57;100.00;51102.22;5057154;28;19937;-66
2022/11/05 05:27:23;;;;;;;;;;;;;;;-143.57;100.00;51120.09;5058256;28;20074;-65
2022/11/05 05:29:49;;;;;;;;;;;;;;;-143.57;100.00;51151.91;5056976;28;20451;-65
2022/11/05 05:32:16;;;;;;;;;;;;;;;-143.57;100.00;51155.88;5059534;28;19963;-65
2022/11/05 05:34:43;;;;;;;;;;;;;;;-143.57;100.00;51132.03;5055914;28;20709;-66
2022/11/05 05:37:10;;;;;;;;;;;;;;;-143.57;100.00;51120.09;5059926;28;20020;-66
2022/11/05 05:39:36;;;;;;;;;;;;;;;-143.57;100.00;51139.97;5057814;28;19929;-66
2022/11/05 05:42:03;;;;;;;;;;;;;;;-143.57;100.00;51136.00;5058467;28;19951;-66
2022/11/05 05:44:30;;;;;;;;;;;;;;;-143.57;100.00;51116.13;5058615;28;19924;-65
2022/11/05 05:46:56;;;;;;;;;;;;;;;-143.57;100.00;51118.13;5061023;28;19924;-66
2022/11/05 05:49:23;;;;;;;;;;;;;;;-143.57;100.00;51104.19;5063736;28;19929;-66
2022/11/05 05:51:50;;;;;;;;;;;;;;;-143.57;100.00;51128.06;5065911;28;19924;-66
2022/11/05 05:54:16;;;;;;;;;;;;;;;-143.57;100.00;51120.09;5062820;28;20046;-66
2022/11/05 05:56:43;;;;;;;;;;;;;;;-143.57;100.00;51114.13;5061985;28;19934;-66
2022/11/05 05:59:11;;;;;;;;;;;;;;;-143.57;100.00;51132.03;5061711;28;20030;-67
2022/11/05 06:01:37;;;;;;;;;;;;;;;-143.57;100.00;51124.06;5059998;28;19956;-66
2022/11/05 06:04:04;;;;;;;;;;;;;;;-143.57;100.00;51112.16;5065802;28;19928;-66
2022/11/05 06:06:31;;;;;;;;;;;;;;;-143.57;100.00;51145.94;5060606;28;19928;-66
2022/11/05 06:08:58;;;;;;;;;;;;;;;-143.57;100.00;51124.06;5063168;28;19932;-66
2022/11/05 06:11:24;;;;;;;;;;;;;;;-143.57;100.00;51147.94;5059222;28;19925;-66
2022/11/05 06:13:51;;;;;;;;;;;;;;;-143.57;100.00;51120.09;5062807;28;20546;-66
2022/11/05 06:16:18;;;;;;;;;;;;;;;-143.57;100.00;51108.19;5064628;28;19924;-66
2022/11/05 06:18:45;;;;;;;;;;;;;;;-143.57;100.00;51139.97;5062828;28;20028;-66
2022/11/05 06:21:13;;;;;;;;;;;;;;;-143.57;100.00;51139.97;5062594;28;20145;-66
2022/11/05 06:23:40;;;;;;;;;;;;;;;-143.57;100.00;51136.00;5059698;28;19932;-66
2022/11/05 06:26:08;;;;;;;;;;;;;;;-143.57;100.00;51136.00;5057018;28;20066;-66
2022/11/05 06:28:35;;;;;;;;;;;;;;;-143.57;100.00;51136.00;5060058;28;20226;-66
2022/11/05 06:31:03;;;;;;;;;;;;;;;-143.57;100.00;51136.00;5059629;28;19928;-66
2022/11/05 06:33:29;;;;;;;;;;;;;;;-143.57;100.00;51155.88;5059577;28;19938;-67
2022/11/05 06:36:03;;;;;;;;;;;;;;;-143.57;100.00;51132.03;5064769;28;20551;-67
2022/11/05 06:38:31;;;;;;;;;;;;;;;-143.57;100.00;51112.16;5056388;28;19935;-67
2022/11/05 06:40:58;;;;;;;;;;;;;;;-143.57;100.00;51136.00;5057869;28;20681;-66
2022/11/05 06:43:25;;;;;;;;;;;;;;;-143.57;100.00;51139.97;5059578;28;20018;-67
2022/11/05 06:45:52;;;;;;;;;;;;;;;-143.57;100.00;51163.84;5064033;28;19925;-66
2022/11/05 06:48:19;;;;;;;;;;;;;;;-143.57;100.00;51120.09;5059014;28;20039;-66
2022/11/05 06:50:45;;;;;;;;;;;;;;;-143.57;100.00;51120.09;5061089;28;20086;-66
2022/11/05 06:53:12;;;;;;;;;;;;;;;-143.57;100.00;51136.00;5061468;28;19936;-66
2022/11/05 06:55:39;;;;;;;;;;;;;;;-143.57;100.00;51159.84;5056925;28;19928;-66
2022/11/05 06:58:06;;;;;;;;;;;;;;;-143.57;100.00;51165.81;5061748;28;19981;-66
2022/11/05 07:00:32;;;;;;;;;;;;;;;-143.57;100.00;51128.06;5057650;28;19932;-66
2022/11/05 07:03:03;;;;;;;;;;;;;;;-143.57;100.00;51108.19;5061461;28;19936;-66
2022/11/05 07:05:30;;;;;;;;;;;;;;;-143.57;100.00;51112.16;5058301;28;19933;-66
2022/11/05 07:07:56;;;;;;;;;;;;;;;-143.57;100.00;51112.16;5064244;28;19956;-65
2022/11/05 07:10:25;;;;;;;;;;;;;;;-143.57;100.00;51151.91;5061306;28;19940;-65
2022/11/05 07:12:52;;;;;;;;;;;;;;;-143.57;100.00;51118.13;5065293;28;19929;-65
2022/11/05 07:15:19;;;;;;;;;;;;;;;-143.57;100.00;51138.00;5060588;28;20709;-66
2022/11/05 07:17:46;;;;;;;;;;;;;;;-143.57;100.00;51132.03;5061532;28;20031;-66
2022/11/05 07:20:12;;;;;;;;;;;;;;;-143.57;100.00;51100.22;5059800;28;20011;-66
2022/11/05 07:22:39;;;;;;;;;;;;;;;-143.57;100.00;51139.97;5058063;28;19990;-67
2022/11/05 07:25:06;;;;;;;;;;;;;;;-143.57;100.00;51106.19;5059656;28;20046;-67
2022/11/05 07:27:36;;;;;;;;;;;;;;;-143.57;100.00;51114.13;5060166;28;19959;-67
2022/11/05 07:30:03;;;;;;;;;;;;;;;-143.57;100.00;51108.19;5060983;28;20194;-67
2022/11/05 07:32:29;;;;;;;;;;;;;;;-143.57;100.00;51100.22;5057841;28;19994;-68
2022/11/05 07:34:56;;;;;;;;;;;;;;;-143.57;100.00;51161.84;5061555;28;19925;-67
2022/11/05 07:37:23;;;;;;;;;;;;;;;-143.57;100.00;51108.19;5057042;28;20009;-67
2022/11/05 07:39:49;;;;;;;;;;;;;;;-143.57;100.00;51167.81;5060896;28;19933;-67
2022/11/05 07:42:16;;;;;;;;;;;;;;;-143.57;100.00;51136.00;5058978;28;19970;-67
2022/11/05 07:44:43;;;;;;;;;;;;;;;-143.57;100.00;51145.94;5062065;28;20023;-67
2022/11/05 07:47:09;;;;;;;;;;;;;;;-143.57;100.00;51159.84;5057200;28;19932;-67
2022/11/05 07:49:36;;;;;;;;;;;;;;;-143.57;100.00;51132.03;5060970;28;19932;-67
2022/11/05 07:52:03;;;;;;;;;;;;;;;-143.57;100.00;51132.03;5057102;28;20540;-67
2022/11/05 07:54:29;;;;;;;;;;;;;;;-143.57;100.00;51120.09;5061313;28;19928;-67
2022/11/05 07:56:56;;;;;;;;;;;;;;;-143.57;100.00;51120.09;5062109;28;19986;-67
2022/11/05 07:59:23;;;;;;;;;;;;;;;-143.57;100.00;51151.91;5057668;28;20636;-65
2022/11/05 08:01:49;;;;;;;;;;;;;;;-143.57;100.00;51108.19;5061701;28;19932;-65
2022/11/05 08:04:16;;;;;;;;;;;;;;;-143.57;100.00;51092.28;5058056;28;20612;-65
2022/11/05 08:06:43;;;;;;;;;;;;;;;-143.57;100.00;51130.03;5059672;28;19981;-65
2022/11/05 08:09:09;;;;;;;;;;;;;;;-143.57;100.00;51124.06;5058585;28;19952;-65
2022/11/05 08:11:36;;;;;;;;;;;;;;;-143.57;100.00;51092.28;5087284;27;20182;-66
2022/11/05 08:14:03;;;;;;;;;;;;;;;-143.57;100.00;51112.16;5058766;28;20061;-65
2022/11/05 08:16:29;;;;;;;;;;;;;;;-143.57;100.00;51139.97;5061581;28;19986;-65
2022/11/05 08:18:56;;;;;;;;;;;;;;;-143.57;100.00;51139.97;5059499;28;19986;-65
2022/11/05 08:21:23;;;;;;;;;;;;;;;-143.57;100.00;51106.19;5084115;27;19929;-64
2022/11/05 08:23:49;;;;;;;;;;;;;;;-143.57;100.00;51147.94;5060928;28;20669;-65
2022/11/05 08:26:16;;;;;;;;;;;;;;;-143.57;100.00;51147.94;5057412;28;20017;-65
2022/11/05 08:28:42;;;;;;;;;;;;;;;-143.57;100.00;51108.19;5060901;28;20027;-65
2022/11/05 08:31:09;;;;;;;;;;;;;;;-143.57;100.00;51153.91;5060202;28;19998;-65
2022/11/05 08:33:36;;;;;;;;;;;;;;;-143.57;100.00;51116.13;5058786;28;19932;-66
2022/11/05 08:36:03;;;;;;;;;;;;;;;-143.57;100.00;51130.03;5059881;28;19932;-64
2022/11/05 08:38:30;;;;;;;;;;;;;;;-143.57;100.00;51100.22;5056417;28;19928;-65
2022/11/05 08:40:57;;;;;;;;;;;;;;;-143.57;99.22;51143.97;5057844;28;20455;-64
2022/11/05 08:43:24;;;;;;;;;;;;;;;-143.57;68.73;51080.34;5058389;28;19964;-65
2022/11/05 08:45:53;;;;;;;;;;;;;;;-143.57;68.45;51116.13;5056655;28;20123;-66
2022/11/05 08:48:20;;;;;;;;;;;;;;;-143.57;68.67;51134.00;5062072;28;19989;-65
2022/11/05 08:50:47;;;;;;;;;;;;;;;-143.57;68.34;51130.03;5060776;28;20577;-67
2022/11/05 08:53:14;;;;;;;;;;;;;;;-143.57;66.21;51136.00;5058085;28;19932;-69
2022/11/05 08:55:42;;;;;;;;;;;;;;;-143.57;65.29;51118.13;5060054;28;20367;-67
2022/11/05 08:58:16;;;;;;;;;;;;;;;-143.57;64.04;51124.06;5058458;28;20486;-66
2022/11/05 09:00:44;;;;;;;;;;;;;;;-143.57;63.54;51138.00;5061708;28;19960;-66
2022/11/05 09:03:11;;;;;;;;;;;;;;;-143.57;63.40;51151.91;5059560;28;20582;-65
2022/11/05 09:05:39;;;;;;;;;;;;;;;-143.57;62.06;51112.16;5058631;28;20052;-66
2022/11/05 09:08:10;;;;;;;;;;;;;;;-143.57;60.68;51108.19;5057775;28;19936;-67
2022/11/05 09:10:37;;;;;;;;;;;;;;;-143.57;60.60;51130.03;5061051;28;19960;-67
2022/11/05 09:13:04;;;;;;;;;;;;;;;-143.57;60.03;51132.03;5056385;28;19928;-67
2022/11/05 09:15:31;;;;;;;;;;;;;;;-143.57;59.28;51136.00;5063869;28;20008;-65
2022/11/05 09:17:58;;;;;;;;;;;;;;;-143.57;58.87;51132.03;5060547;28;20015;-68
2022/11/05 09:20:24;;;;;;;;;;;;;;;-143.57;58.35;51112.16;5062847;28;19935;-68
2022/11/05 09:22:51;;;;;;;;;;;;;;;-143.57;58.35;51120.09;5059117;28;19932;-68
2022/11/05 09:25:18;;;;;;;;;;;;;;;-143.57;58.04;51096.25;5062092;28;19928;-65
2022/11/05 09:27:44;;;;;;;;;;;;;;;-143.57;57.88;51112.16;5058649;28;19956;-66
2022/11/05 09:30:12;;;;;;;;;;;;;;;-143.57;57.09;51104.19;5061566;28;19952;-66
2022/11/05 09:32:39;;;;;;;;;;;;;;;-143.57;57.24;51068.41;5066133;28;19939;-66
2022/11/05 09:35:06;;;;;;;;;;;;;;;-143.57;57.59;51108.19;5058205;28;19991;-67
2022/11/05 09:37:34;;;;;;;;;;;;;;;-143.57;57.17;51092.28;5061167;28;19967;-68
2022/11/05 09:40:01;;;;;;;;;;;;;;;-143.57;57.25;51092.28;5056547;28;19982;-67
2022/11/05 09:42:34;;;;;;;;;;;;;;;-143.57;57.37;51048.53;5059416;28;19928;-66
2022/11/05 09:45:04;;;;;;;;;;;;;;;-143.57;56.21;51130.03;5059984;27;19982;-67
2022/11/05 09:47:42;;;;;;;;;;;;;;;-143.57;54.38;51096.25;5056342;28;20389;-67
2022/11/05 09:50:17;;;;;;;;;;;;;;;-143.57;54.40;51086.31;5057899;28;19944;-66
2022/11/05 09:52:44;;;;;;;;;;;;;;;-143.57;53.13;51092.28;5059292;28;19928;-67
2022/11/05 09:55:25;;;;;;;;;;;;;;;-143.57;51.88;51128.06;5058038;28;20498;-67
2022/11/05 09:57:55;;;;;;;;;;;;;;;-143.57;52.93;51132.03;5089106;28;19935;-67
2022/11/05 10:00:22;;;;;;;;;;;;;;;-143.57;53.69;51136.00;5057337;28;19928;-67
2022/11/05 10:02:51;;;;;;;;;;;;;;;-143.57;54.12;51108.19;5059434;28;19963;-67
2022/11/05 10:05:19;;;;;;;;;;;;;;;-143.57;53.81;51096.25;5058224;28;19967;-66
2022/11/05 10:07:48;;;;;;;;;;;;;;;-143.57;51.57;51096.25;5059118;28;20038;-67
2022/11/05 10:10:24;;;;;;;;;;;;;;;-143.57;50.63;51128.06;5058855;27;19994;-67
2022/11/05 10:12:53;;;;;;;;;;;;;;;-143.57;49.28;51100.22;5056337;28;19960;-67
2022/11/05 10:15:21;;;;;;;;;;;;;;;-143.57;48.76;51120.09;5059817;28;19975;-66
2022/11/05 10:17:50;;;;;;;;;;;;;;;-143.57;47.24;51078.34;5055396;28;19924;-67
2022/11/05 10:20:34;;;;;;;;;;;;;;;-143.57;47.21;51080.34;5058955;28;20075;-67
2022/11/05 10:23:07;;;;;;;;;;;;;;;-143.57;45.64;51092.28;5061913;28;19935;-67
2022/11/05 10:25:36;;;;;;;;;;;;;;;-143.57;44.66;51088.28;5061938;28;19924;-66
2022/11/05 10:28:03;;;;;;;;;;;;;;;-143.57;43.10;51132.03;5055940;28;20121;-67
2022/11/05 10:30:30;;;;;;;;;;;;;;;-143.57;42.80;51088.28;5061380;28;19928;-67
2022/11/05 10:32:59;;;;;;;;;;;;;;;-143.57;42.68;51076.38;5060287;28;19932;-67
2022/11/05 10:35:28;;;;;;;;;;;;;;;-143.57;42.21;51076.38;5063460;28;19967;-67
2022/11/05 10:55:09;;;;;;;;;;;;;;;-143.57;39.90;51048.53;5072826;28;19927;-65
2022/11/05 10:57:38;;;;;;;;;;;;;;;-143.57;40.62;51084.31;5061044;28;19928;-65
2022/11/05 11:00:13;;;;;;;;;;;;;;;-143.57;41.28;51108.19;5053967;28;19955;-65
2022/11/05 11:02:41;;;;;;;;;;;;;;;-143.57;40.98;51082.34;5059765;28;19975;-66
2022/11/05 11:05:09;;;;;;;;;;;;;;;-143.57;40.38;51108.19;5052370;28;19928;-66
2022/11/05 11:07:36;;;;;;;;;;;;;;;-143.57;39.78;51084.31;5051532;28;19925;-65
2022/11/05 11:10:03;;;;;;;;;;;;;;;-143.57;39.63;51080.34;5050764;28;19928;-65
2022/11/05 11:12:36;;;;;;;;;;;;;;;-143.57;39.72;51096.25;5053721;28;19940;-65
2022/11/05 11:15:14;;;;;;;;;;;;;;;-143.57;39.85;51098.25;5053247;28;20251;-66
2022/11/05 11:17:40;;;;;;;;;;;;;;;-143.57;39.04;51070.41;5054466;28;19928;-66
2022/11/05 11:20:16;;;;;;;;;;;;;;;-143.57;39.06;51092.28;5056666;28;20382;-66
2022/11/05 11:22:57;;;;;;;;;;;;;;;-143.57;38.98;51094.25;5061146;28;20071;-65
2022/11/05 11:25:25;;;;;;;;;;;;;;;-143.57;38.97;51082.34;5050167;28;19983;-66
2022/11/05 11:27:52;;;;;;;;;;;;;;;-143.57;38.86;51076.38;5055833;28;19951;-66
2022/11/05 11:30:19;;;;;;;;;;;;;;;-143.57;38.97;51090.28;5057223;28;20625;-65
2022/11/05 11:32:46;;;;;;;;;;;;;;;-143.57;37.97;51094.25;5055858;28;19932;-67
2022/11/05 11:35:20;;;;;;;;;;;;;;;-143.57;38.45;51036.63;5055106;28;20380;-66
2022/11/05 11:37:47;;;;;;;;;;;;;;;-143.57;39.04;51096.25;5056670;28;20434;-65
2022/11/05 11:40:28;;;;;;;;;;;;;;;-143.57;38.43;51084.31;5062507;28;19967;-66
2022/11/05 11:42:56;;;;;;;;;;;;;;;-143.57;38.36;51084.31;5055128;28;19990;-65
2022/11/05 11:45:28;;;;;;;;;;;;;;;-143.57;38.06;51076.38;5051471;28;19929;-65
2022/11/05 11:47:56;;;;;;;;;;;;;;;-143.57;37.84;51078.34;5052173;28;19939;-65
2022/11/05 11:50:32;;;;;;;;;;;;;;;-143.57;37.94;51060.47;5057912;28;20011;-65
2022/11/05 11:53:17;;;;;;;;;;;;;;;-143.57;39.09;51104.19;5082753;28;20381;-66
2022/11/05 11:56:07;;;;;;;;;;;;;;;-143.57;38.62;51092.28;5040588;28;19973;-65
2022/11/05 11:58:35;;;;;;;;;;;;;;;-143.57;38.95;51088.28;5042018;28;19928;-66
2022/11/05 12:01:25;;;;;;;;;;;;;;;-143.57;39.11;51028.66;5047746;28;20704;-66
2022/11/05 12:03:51;;;;;;;;;;;;;;;-143.57;38.89;51120.09;5030620;28;19933;-66
2022/11/05 12:06:33;;;;;;;;;;;;;;;-143.57;39.13;51092.28;5038557;28;20397;-66
2022/11/05 12:09:01;;;;;;;;;;;;;;;-143.57;38.76;51072.41;5044991;28;20018;-67
2022/11/05 12:11:43;;;;;;;;;;;;;;;-143.57;38.78;51066.44;5045968;28;19939;-67
2022/11/05 12:14:29;;;;;;;;;;;;;;;-143.57;39.00;51064.44;5045036;28;19935;-67
2022/11/05 12:17:01;;;;;;;;;;;;;;;-143.57;39.05;51088.28;5039440;28;20021;-67
2022/11/05 12:19:31;;;;;;;;;;;;;;;-143.57;39.18;51108.19;5043566;28;19994;-67
2022/11/05 12:22:20;;;;;;;;;;;;;;;-143.57;39.51;51072.41;5043333;28;20459;-66
2022/11/05 12:24:47;;;;;;;;;;;;;;;-143.57;39.45;51088.28;5045665;28;20012;-66
2022/11/05 12:27:13;;;;;;;;;;;;;;;-143.57;39.67;51068.41;5040227;28;20381;-66
2022/11/05 12:29:46;;;;;;;;;;;;;;;-143.57;39.70;51100.22;5043129;28;19925;-66
2022/11/05 12:32:12;;;;;;;;;;;;;;;-143.57;39.67;51094.25;5047762;28;19929;-66
2022/11/05 12:34:59;;;;;;;;;;;;;;;-143.57;39.26;51104.19;5042938;28;19925;-66
2022/11/05 12:37:44;;;;;;;;;;;;;;;-143.57;39.28;51120.09;5028243;28;19932;-66
2022/11/05 12:40:30;;;;;;;;;;;;;;;-143.57;39.43;51038.59;5043212;28;20015;-66
2022/11/05 12:43:10;;;;;;;;;;;;;;;-143.57;39.58;51088.28;5042869;28;19960;-66
2022/11/05 12:45:43;;;;;;;;;;;;;;;-143.57;39.33;51084.31;5041426;28;20371;-66
2022/11/05 12:48:10;;;;;;;;;;;;;;;-143.57;39.50;51068.41;5042808;28;19982;-65
2022/11/05 12:50:43;;;;;;;;;;;;;;;-143.57;39.97;51072.41;5044604;28;20419;-66
2022/11/05 12:53:09;;;;;;;;;;;;;;;-143.57;39.81;51084.31;5039865;28;20392;-66
2022/11/05 12:55:38;;;;;;;;;;;;;;;-143.57;39.86;51060.47;5046531;28;20430;-65
2022/11/05 12:58:14;;;;;;;;;;;;;;;-143.57;39.94;51068.41;5038518;28;19936;-65
2022/11/05 13:00:43;;;;;;;;;;;;;;;-143.57;40.15;51092.28;5047263;28;20026;-65
2022/11/05 13:03:22;;;;;;;;;;;;;;;-143.57;40.54;51068.41;5044143;28;20510;-65
2022/11/05 13:06:01;;;;;;;;;;;;;;;-143.57;40.42;51082.34;5038709;28;19963;-65
2022/11/05 13:08:40;;;;;;;;;;;;;;;-143.57;40.88;51084.31;5040029;28;19933;-65
2022/11/05 13:11:09;;;;;;;;;;;;;;;-143.57;40.69;51060.47;5045303;28;20393;-65
2022/11/05 13:13:46;;;;;;;;;;;;;;;-143.57;40.73;51042.56;5041561;28;20006;-65
2022/11/05 13:16:21;;;;;;;;;;;;;;;-143.57;41.00;51064.44;5044994;28;19996;-66
2022/11/05 13:18:50;;;;;;;;;;;;;;;-143.57;41.23;51072.41;5041783;28;19925;-67
2022/11/05 13:21:18;;;;;;;;;;;;;;;-143.57;41.80;51080.34;5052127;28;20434;-66
2022/11/05 13:23:48;;;;;;;;;;;;;;;-143.57;42.19;51102.22;5043165;28;20031;-66
2022/11/05 13:26:21;;;;;;;;;;;;;;;-143.57;42.52;51088.28;5045677;28;19982;-66
2022/11/05 13:29:10;;;;;;;;;;;;;;;-143.57;42.80;51056.50;5045622;28;19929;-66
2022/11/05 13:31:47;;;;;;;;;;;;;;;-143.57;42.88;51080.34;5047970;28;19982;-65